createdAt,value
2019-01-06T00:01:21.068Z,90.50
2019-01-06T00:03:51.190Z,90.30
2019-01-06T00:06:23.996Z,90.40
2019-01-06T00:08:54.058Z,90.20
2019-01-06T00:11:27.040Z,90.30
2019-01-06T00:13:59.840Z,89.80
2019-01-06T00:16:48.049Z,90.30
2019-01-06T00:19:24.109Z,89.80
2019-01-06T00:22:10.494Z,89.90
2019-01-06T00:24:40.562Z,89.90
2019-01-06T00:27:27.290Z,90.00
2019-01-06T00:30:03.324Z,90.00
2019-01-06T00:32:36.541Z,90.10
2019-01-06T00:35:10.140Z,90.10
2019-01-06T00:37:46.223Z,90.00
2019-01-06T00:40:22.422Z,90.10
2019-01-06T00:42:55.622Z,90.10
2019-01-06T00:45:25.837Z,90.00
2019-01-06T00:48:14.118Z,90.20
2019-01-06T00:51:00.721Z,90.00
2019-01-06T00:53:36.594Z,89.90
2019-01-06T00:56:06.802Z,90.20
2019-01-06T00:58:42.953Z,90.30
2019-01-06T01:01:18.576Z,90.40
2019-01-06T01:04:00.585Z,90.50
2019-01-06T01:06:45.488Z,90.50
2019-01-06T01:09:45.079Z,90.50
2019-01-06T01:12:31.655Z,90.50
2019-01-06T01:15:10.558Z,90.60
2019-01-06T01:17:52.808Z,90.50
2019-01-06T01:20:22.923Z,90.40
2019-01-06T01:23:09.190Z,90.60
2019-01-06T01:25:48.356Z,90.50
2019-01-06T01:28:24.343Z,90.50
2019-01-06T01:31:10.748Z,90.40
2019-01-06T01:33:40.875Z,90.50
2019-01-06T01:36:27.136Z,90.40
2019-01-06T01:39:13.505Z,90.50
2019-01-06T01:41:59.964Z,90.40
2019-01-06T01:44:48.407Z,90.20
2019-01-06T01:47:27.497Z,90.40
2019-01-06T01:50:03.366Z,90.10
2019-01-06T01:52:33.429Z,90.20
2019-01-06T01:55:09.457Z,90.20
2019-01-06T01:57:45.543Z,90.00
2019-01-06T02:00:24.791Z,90.10
2019-01-06T02:03:11.598Z,90.20
2019-01-06T02:05:44.605Z,90.20
2019-01-06T02:08:32.753Z,90.20
2019-01-06T02:11:08.603Z,90.00
2019-01-06T02:13:38.670Z,90.10
2019-01-06T02:16:25.173Z,89.70
2019-01-06T02:19:04.224Z,90.00
2019-01-06T02:21:43.332Z,90.00
2019-01-06T02:24:25.694Z,89.80
2019-01-06T02:27:13.822Z,90.00
2019-01-06T02:29:56.007Z,90.10
2019-01-06T02:32:33.926Z,90.10
2019-01-06T02:35:06.410Z,90.10
2019-01-06T02:37:36.510Z,90.20
2019-01-06T02:40:17.258Z,90.40
2019-01-06T02:42:53.127Z,90.20
2019-01-06T02:45:23.206Z,90.40
2019-01-06T02:48:09.821Z,90.50
2019-01-06T02:50:55.230Z,90.80
2019-01-06T02:53:40.134Z,90.60
2019-01-06T02:56:15.985Z,90.50
2019-01-06T02:58:48.810Z,90.70
2019-01-06T03:01:33.683Z,90.70
2019-01-06T03:04:03.764Z,90.80
2019-01-06T03:06:33.847Z,90.60
2019-01-06T03:09:09.708Z,90.50
2019-01-06T03:11:54.687Z,90.50
2019-01-06T03:14:27.240Z,90.70
2019-01-06T03:17:06.130Z,90.80
2019-01-06T03:19:36.201Z,91.00
2019-01-06T03:22:22.917Z,90.60
2019-01-06T03:24:53.005Z,90.60
2019-01-06T03:27:38.171Z,90.60
2019-01-06T03:30:09.694Z,90.60
2019-01-06T03:32:52.030Z,90.60
2019-01-06T03:35:34.191Z,90.70
2019-01-06T03:38:13.430Z,90.70
2019-01-06T03:40:59.445Z,90.80
2019-01-06T03:43:45.797Z,90.80
2019-01-06T03:46:32.146Z,90.90
2019-01-06T03:49:04.913Z,90.80
2019-01-06T03:51:49.934Z,90.70
2019-01-06T03:54:20.054Z,90.60
2019-01-06T03:57:06.117Z,90.50
2019-01-06T03:59:41.970Z,90.60
2019-01-06T04:02:28.548Z,90.90
2019-01-06T04:04:58.633Z,90.50
2019-01-06T04:07:44.698Z,90.60
2019-01-06T04:10:31.124Z,90.70
2019-01-06T04:13:07.261Z,90.70
2019-01-06T04:15:40.433Z,90.60
2019-01-06T04:18:13.519Z,90.70
2019-01-06T04:20:49.321Z,90.70
2019-01-06T04:23:31.609Z,90.70
2019-01-06T04:26:04.642Z,90.80
2019-01-06T04:28:43.886Z,90.90
2019-01-06T04:31:13.992Z,90.70
2019-01-06T04:33:44.159Z,90.90
2019-01-06T04:36:14.204Z,90.90
2019-01-06T04:38:56.269Z,90.90
2019-01-06T04:41:38.255Z,90.90
2019-01-06T04:44:16.865Z,90.90
2019-01-06T04:46:46.958Z,90.90
2019-01-06T04:49:29.233Z,91.00
2019-01-06T04:52:14.717Z,90.80
2019-01-06T04:54:50.516Z,90.90
2019-01-06T04:57:26.616Z,90.90
2019-01-06T04:59:59.913Z,91.00
2019-01-06T05:02:46.340Z,91.00
2019-01-06T05:05:16.395Z,91.00
2019-01-06T05:07:52.401Z,91.20
2019-01-06T05:10:34.482Z,91.60
2019-01-06T05:13:16.919Z,91.30
2019-01-06T05:15:48.142Z,91.60
2019-01-06T05:18:20.891Z,91.20
2019-01-06T05:20:50.995Z,91.10
2019-01-06T05:23:21.075Z,91.30
2019-01-06T05:26:00.262Z,91.40
2019-01-06T05:28:40.745Z,91.40
2019-01-06T05:31:27.396Z,91.20
2019-01-06T05:34:00.285Z,91.10
2019-01-06T05:36:30.328Z,91.00
2019-01-06T05:39:03.313Z,90.90
2019-01-06T05:41:51.448Z,90.80
2019-01-06T05:44:30.093Z,90.90
2019-01-06T05:47:18.213Z,91.20
2019-01-06T05:49:51.071Z,90.60
2019-01-06T05:52:26.831Z,90.60
2019-01-06T05:55:02.876Z,90.60
2019-01-06T05:57:32.996Z,90.80
2019-01-06T06:00:19.088Z,90.40
2019-01-06T06:02:51.905Z,90.40
2019-01-06T06:05:30.806Z,90.50
2019-01-06T06:08:16.073Z,90.50
2019-01-06T06:10:58.046Z,90.80
2019-01-06T06:13:28.103Z,90.60
2019-01-06T06:16:14.425Z,90.70
2019-01-06T06:19:01.004Z,90.50
2019-01-06T06:21:37.240Z,90.70
2019-01-06T06:24:23.558Z,90.60
2019-01-06T06:27:08.975Z,90.80
2019-01-06T06:29:56.868Z,90.80
2019-01-06T06:32:32.474Z,90.60
2019-01-06T06:35:08.502Z,91.00
2019-01-06T06:37:41.309Z,90.70
2019-01-06T06:40:11.373Z,90.80
2019-01-06T06:42:58.024Z,90.60
2019-01-06T06:45:43.239Z,90.70
2019-01-06T06:48:19.232Z,90.80
2019-01-06T06:51:14.219Z,90.80
2019-01-06T06:53:44.321Z,90.90
2019-01-06T06:56:14.402Z,90.80
2019-01-06T06:58:59.936Z,90.80
2019-01-06T07:01:48.204Z,90.80
2019-01-06T07:04:21.113Z,90.70
2019-01-06T07:07:07.759Z,90.70
2019-01-06T07:09:37.833Z,90.60
2019-01-06T07:12:24.133Z,90.30
2019-01-06T07:14:54.195Z,90.70
2019-01-06T07:18:01.427Z,90.80
2019-01-06T07:20:48.236Z,90.80
2019-01-06T07:23:21.355Z,90.60
2019-01-06T07:26:07.434Z,90.60
2019-01-06T07:28:54.322Z,90.80
2019-01-06T07:31:33.414Z,90.70
2019-01-06T07:34:03.486Z,90.60
2019-01-06T07:36:50.129Z,90.70
2019-01-06T07:39:36.922Z,90.80
2019-01-06T07:42:06.969Z,90.80
2019-01-06T07:44:37.076Z,90.80
2019-01-06T07:47:10.027Z,90.90
2019-01-06T07:49:42.817Z,91.00
2019-01-06T07:52:12.888Z,91.20
2019-01-06T07:54:48.873Z,91.30
2019-01-06T07:57:24.920Z,91.20
2019-01-06T07:59:57.701Z,91.00
2019-01-06T08:02:27.748Z,91.00
2019-01-06T08:04:57.833Z,90.90
2019-01-06T08:07:46.281Z,90.90
2019-01-06T08:10:22.593Z,91.00
2019-01-06T08:12:55.817Z,90.90
2019-01-06T08:15:35.102Z,90.90
2019-01-06T08:18:14.190Z,91.00
2019-01-06T08:21:02.478Z,90.90
2019-01-06T08:23:35.361Z,90.80
2019-01-06T08:26:08.146Z,90.90
2019-01-06T08:28:38.208Z,90.70
2019-01-06T08:31:11.266Z,90.90
2019-01-06T08:33:41.382Z,91.00
2019-01-06T08:36:14.570Z,91.10
2019-01-06T08:38:44.637Z,91.00
2019-01-06T08:41:17.682Z,91.10
2019-01-06T08:43:50.543Z,90.90
2019-01-06T08:46:20.600Z,90.90
2019-01-06T08:49:07.155Z,91.00
2019-01-06T08:51:46.022Z,91.00
2019-01-06T08:54:18.837Z,91.00
2019-01-06T08:57:04.824Z,90.80
2019-01-06T08:59:40.760Z,91.00
2019-01-06T09:02:27.273Z,91.10
2019-01-06T09:05:00.194Z,91.00
2019-01-06T09:07:48.597Z,91.10
2019-01-06T09:10:24.709Z,91.30
2019-01-06T09:13:06.842Z,91.50
2019-01-06T09:16:02.115Z,91.40
2019-01-06T09:18:35.219Z,91.30
2019-01-06T09:21:05.268Z,91.30
2019-01-06T09:23:35.389Z,91.50
2019-01-06T09:26:05.467Z,91.50
2019-01-06T09:28:41.337Z,91.50
2019-01-06T09:31:26.437Z,91.40
2019-01-06T09:34:02.473Z,91.20
2019-01-06T09:36:35.042Z,91.30
2019-01-06T09:39:15.679Z,91.50
2019-01-06T09:42:00.502Z,91.50
2019-01-06T09:44:33.529Z,91.40
2019-01-06T09:47:03.661Z,91.20
2019-01-06T09:49:50.289Z,91.10
2019-01-06T09:52:36.765Z,91.00
2019-01-06T09:55:13.315Z,91.10
2019-01-06T09:57:43.389Z,90.90
2019-01-06T10:00:13.534Z,90.90
2019-01-06T10:02:46.619Z,90.90
2019-01-06T10:05:17.532Z,90.70
2019-01-06T10:07:59.724Z,90.80
2019-01-06T10:10:46.417Z,90.60
2019-01-06T10:13:16.554Z,90.70
2019-01-06T10:16:04.422Z,90.70
2019-01-06T10:18:34.578Z,91.00
2019-01-06T10:21:04.767Z,91.00
2019-01-06T10:23:41.048Z,90.90
2019-01-06T10:26:29.184Z,91.00
2019-01-06T10:29:11.325Z,90.90
2019-01-06T10:31:50.449Z,90.90
2019-01-06T10:34:37.087Z,91.30
2019-01-06T10:37:16.132Z,91.10
2019-01-06T10:39:46.201Z,91.20
2019-01-06T10:42:18.974Z,91.20
2019-01-06T10:45:05.250Z,91.30
2019-01-06T10:47:41.118Z,91.10
2019-01-06T10:50:28.354Z,91.10
2019-01-06T10:52:58.562Z,91.10
2019-01-06T10:55:34.398Z,91.10
2019-01-06T10:58:04.491Z,91.20
2019-01-06T11:00:37.414Z,91.20
2019-01-06T11:03:07.566Z,91.40
2019-01-06T11:05:55.712Z,91.40
2019-01-06T11:08:31.815Z,91.30
2019-01-06T11:11:04.973Z,91.30
2019-01-06T11:13:44.408Z,91.40
2019-01-06T11:16:23.765Z,91.30
2019-01-06T11:18:53.838Z,91.40
2019-01-06T11:21:26.745Z,91.30
2019-01-06T11:24:08.814Z,91.20
2019-01-06T11:26:41.868Z,91.20
2019-01-06T11:29:24.051Z,91.10
2019-01-06T11:32:10.525Z,91.10
2019-01-06T11:34:57.093Z,91.00
2019-01-06T11:37:45.224Z,91.20
2019-01-06T11:40:18.047Z,90.90
2019-01-06T11:43:03.597Z,91.20
2019-01-06T11:45:39.690Z,91.40
2019-01-06T11:48:09.792Z,91.10
2019-01-06T11:50:48.569Z,91.00
2019-01-06T11:53:27.485Z,91.00
2019-01-06T11:56:14.343Z,90.70
2019-01-06T11:58:44.543Z,90.90
2019-01-06T12:01:21.013Z,91.00
2019-01-06T12:04:09.647Z,91.00
2019-01-06T12:06:39.982Z,91.00
2019-01-06T12:09:16.163Z,91.10
2019-01-06T12:11:46.276Z,91.10
2019-01-06T12:14:25.723Z,91.30
2019-01-06T12:17:07.810Z,91.10
2019-01-06T12:19:55.898Z,91.10
2019-01-06T12:22:32.029Z,91.10
2019-01-06T12:25:04.793Z,90.90
2019-01-06T12:27:41.179Z,91.00
2019-01-06T12:30:26.824Z,91.10
2019-01-06T12:33:11.645Z,91.10
2019-01-06T12:35:57.094Z,91.20
2019-01-06T12:38:30.399Z,90.90
2019-01-06T12:41:02.962Z,90.80
2019-01-06T12:43:35.807Z,90.90
2019-01-06T12:46:06.033Z,90.70
2019-01-06T12:48:54.234Z,90.80
2019-01-06T12:51:27.110Z,90.80
2019-01-06T12:54:03.142Z,90.90
2019-01-06T12:56:49.357Z,90.60
2019-01-06T12:59:25.412Z,90.70
2019-01-06T13:02:10.876Z,90.70
2019-01-06T13:04:56.302Z,91.10
2019-01-06T13:07:26.451Z,90.60
2019-01-06T13:09:59.213Z,90.80
2019-01-06T13:12:45.842Z,90.50
2019-01-06T13:15:32.573Z,90.60
2019-01-06T13:18:20.921Z,90.60
2019-01-06T13:21:03.462Z,90.60
2019-01-06T13:23:39.572Z,90.60
2019-01-06T13:26:09.776Z,90.70
2019-01-06T13:28:45.662Z,90.50
2019-01-06T13:31:32.001Z,90.50
2019-01-06T13:34:07.802Z,90.60
2019-01-06T13:36:54.781Z,90.40
2019-01-06T13:39:40.381Z,90.50
2019-01-06T13:42:10.546Z,90.30
2019-01-06T13:44:57.311Z,90.30
2019-01-06T13:47:30.413Z,90.20
2019-01-06T13:50:06.017Z,90.50
2019-01-06T13:52:36.214Z,90.40
2019-01-06T13:55:22.682Z,90.50
2019-01-06T13:57:52.773Z,90.30
2019-01-06T14:00:32.288Z,90.40
2019-01-06T14:03:11.636Z,90.40
2019-01-06T14:05:58.090Z,90.40
2019-01-06T14:08:44.599Z,90.40
2019-01-06T14:11:14.666Z,90.60
2019-01-06T14:13:47.301Z,90.30
2019-01-06T14:16:17.362Z,90.20
2019-01-06T14:18:56.379Z,90.30
2019-01-06T14:21:41.834Z,90.40
2019-01-06T14:24:17.677Z,90.40
2019-01-06T14:26:59.873Z,90.10
2019-01-06T14:29:30.060Z,89.70
2019-01-06T14:32:00.156Z,89.50
2019-01-06T14:34:36.188Z,89.50
2019-01-06T14:37:18.059Z,89.40
2019-01-06T14:40:04.168Z,89.40
2019-01-06T14:42:40.058Z,88.90
2019-01-06T14:45:10.329Z,89.20
2019-01-06T14:47:43.642Z,89.10
2019-01-06T14:50:29.963Z,89.10
2019-01-06T14:53:00.257Z,89.20
2019-01-06T14:55:30.368Z,89.60
2019-01-06T14:58:09.791Z,89.40
2019-01-06T15:00:49.183Z,89.20
2019-01-06T15:03:31.335Z,89.30
2019-01-06T15:06:01.396Z,89.40
2019-01-06T15:08:43.535Z,89.40
2019-01-06T15:11:29.982Z,89.30
2019-01-06T15:14:16.712Z,88.90
2019-01-06T15:17:03.330Z,88.80
2019-01-06T15:19:33.409Z,89.10
2019-01-06T15:22:19.799Z,89.20
2019-01-06T15:24:52.681Z,89.40
2019-01-06T15:27:31.302Z,89.10
2019-01-06T15:30:16.470Z,88.90
2019-01-06T15:32:49.142Z,88.90
2019-01-06T15:35:25.294Z,88.80
2019-01-06T15:38:07.558Z,88.80
2019-01-06T15:40:49.746Z,88.60
2019-01-06T15:43:25.809Z,88.60
2019-01-06T15:46:07.949Z,88.60
2019-01-06T15:48:54.450Z,88.60
2019-01-06T15:51:40.799Z,88.60
2019-01-06T15:54:27.158Z,88.90
2019-01-06T15:57:00.235Z,88.70
2019-01-06T15:59:45.390Z,88.50
2019-01-06T16:02:21.204Z,88.70
2019-01-06T16:04:54.674Z,88.70
2019-01-06T16:07:41.222Z,88.50
2019-01-06T16:10:11.413Z,88.60
2019-01-06T16:12:59.731Z,88.60
2019-01-06T16:15:41.887Z,88.80
2019-01-06T16:18:14.990Z,88.70
2019-01-06T16:20:57.145Z,89.10
2019-01-06T16:23:33.167Z,89.60
2019-01-06T16:26:06.059Z,89.50
2019-01-06T16:28:36.241Z,90.10
2019-01-06T16:31:22.794Z,89.30
2019-01-06T16:34:09.504Z,89.30
2019-01-06T16:36:48.532Z,89.10
2019-01-06T16:39:34.859Z,90.00
2019-01-06T16:42:13.842Z,89.00
2019-01-06T16:44:46.433Z,89.00
2019-01-06T16:47:22.612Z,88.80
2019-01-06T16:50:08.831Z,88.80
2019-01-06T16:52:47.638Z,88.80
2019-01-06T16:55:26.667Z,88.50
2019-01-06T16:57:59.459Z,88.80
2019-01-06T17:00:46.235Z,88.70
2019-01-06T17:03:19.054Z,88.90
2019-01-06T17:06:05.241Z,88.80
2019-01-06T17:08:50.682Z,88.60
2019-01-06T17:11:20.869Z,88.40
2019-01-06T17:13:52.496Z,88.20
2019-01-06T17:16:25.972Z,88.10
2019-01-06T17:19:03.393Z,87.80
2019-01-06T17:21:49.996Z,87.60
2019-01-06T17:24:25.982Z,87.10
2019-01-06T17:27:12.602Z,87.30
2019-01-06T17:29:42.979Z,87.30
2019-01-06T17:32:29.357Z,87.40
2019-01-06T17:35:02.076Z,87.20
2019-01-06T17:37:38.349Z,87.40
2019-01-06T17:40:10.342Z,87.30
2019-01-06T17:42:40.734Z,87.50
2019-01-06T17:45:26.974Z,87.70
2019-01-06T17:48:08.950Z,87.70
2019-01-06T17:50:39.135Z,87.70
2019-01-06T17:53:25.475Z,87.90
2019-01-06T17:56:07.655Z,87.60
2019-01-06T17:58:54.114Z,87.70
2019-01-06T18:01:27.116Z,88.30
2019-01-06T18:04:03.204Z,88.30
2019-01-06T18:06:33.534Z,88.10
2019-01-06T18:09:20.221Z,88.50
2019-01-06T18:11:50.439Z,89.50
2019-01-06T18:14:20.713Z,88.80
2019-01-06T18:16:53.593Z,89.00
2019-01-06T18:19:40.220Z,89.00
2019-01-06T18:22:13.041Z,88.70
2019-01-06T18:24:43.275Z,89.10
2019-01-06T18:27:30.050Z,89.00
2019-01-06T18:30:12.721Z,89.00
2019-01-06T18:33:00.987Z,89.00
2019-01-06T18:35:35.141Z,88.90
2019-01-06T18:38:11.613Z,88.70
2019-01-06T18:40:51.279Z,88.70
2019-01-06T18:43:36.685Z,88.60
2019-01-06T18:46:18.924Z,88.80
2019-01-06T18:48:58.263Z,88.70
2019-01-06T18:51:40.738Z,88.70
2019-01-06T18:54:16.693Z,88.50
2019-01-06T18:57:03.169Z,88.30
2019-01-06T18:59:48.716Z,88.00
2019-01-06T19:02:21.479Z,87.60
2019-01-06T19:04:51.647Z,87.70
2019-01-06T19:07:30.890Z,87.90
2019-01-06T19:10:06.772Z,88.20
2019-01-06T19:12:45.947Z,88.00
2019-01-06T19:15:34.677Z,87.90
2019-01-06T19:18:05.238Z,87.80
2019-01-06T19:20:50.395Z,87.90
2019-01-06T19:23:37.069Z,88.80
2019-01-06T19:26:07.200Z,88.00
2019-01-06T19:28:40.038Z,87.90
2019-01-06T19:31:10.115Z,88.20
2019-01-06T19:33:40.463Z,88.30
2019-01-06T19:36:26.752Z,88.30
2019-01-06T19:39:15.098Z,88.10
2019-01-06T19:42:02.014Z,88.00
2019-01-06T19:44:44.624Z,87.90
2019-01-06T19:47:23.542Z,87.60
2019-01-06T19:49:56.567Z,87.60
2019-01-06T19:52:35.626Z,87.70
2019-01-06T19:55:24.765Z,87.60
2019-01-06T19:58:11.409Z,87.40
2019-01-06T20:00:47.310Z,87.30
2019-01-06T20:03:35.910Z,87.60
2019-01-06T20:06:08.974Z,87.60
2019-01-06T20:08:45.167Z,87.40
2019-01-06T20:11:21.433Z,87.60
2019-01-06T20:14:07.949Z,87.70
2019-01-06T20:16:38.245Z,87.80
2019-01-06T20:19:14.421Z,87.80
2019-01-06T20:21:47.938Z,87.70
2019-01-06T20:24:18.107Z,87.90
2019-01-06T20:27:03.828Z,88.00
2019-01-06T20:29:33.984Z,88.90
2019-01-06T20:32:16.303Z,87.90
2019-01-06T20:35:02.716Z,88.20
2019-01-06T20:37:32.831Z,88.40
2019-01-06T20:40:14.808Z,88.40
2019-01-06T20:42:54.556Z,88.50
2019-01-06T20:45:39.882Z,88.70
2019-01-06T20:48:15.872Z,88.70
2019-01-06T20:50:49.350Z,88.70
2019-01-06T20:53:31.718Z,88.90
2019-01-06T20:56:18.467Z,89.00
2019-01-06T20:59:00.992Z,88.90
2019-01-06T21:01:33.892Z,88.80
2019-01-06T21:04:16.087Z,89.20
2019-01-06T21:07:02.477Z,89.00
2019-01-06T21:09:48.982Z,89.20
2019-01-06T21:12:35.863Z,89.20
2019-01-06T21:15:19.060Z,89.50
2019-01-06T21:17:57.867Z,89.50
2019-01-06T21:20:33.934Z,89.20
2019-01-06T21:23:22.123Z,89.20
2019-01-06T21:26:01.427Z,89.40
2019-01-06T21:28:48.122Z,89.30
2019-01-06T21:31:27.206Z,89.60
2019-01-06T21:34:00.275Z,89.70
2019-01-06T21:36:33.259Z,89.70
2019-01-06T21:39:19.707Z,89.20
2019-01-06T21:42:01.879Z,89.40
2019-01-06T21:44:38.188Z,89.40
2019-01-06T21:47:24.892Z,89.20
2019-01-06T21:50:03.796Z,88.90
2019-01-06T21:52:39.937Z,89.00
2019-01-06T21:55:13.061Z,88.70
2019-01-06T21:57:43.154Z,88.50
2019-01-06T22:00:16.310Z,88.40
2019-01-06T22:03:04.531Z,88.40
2019-01-06T22:05:50.612Z,88.40
2019-01-06T22:08:32.522Z,88.20
2019-01-06T22:11:11.645Z,88.10
2019-01-06T22:13:56.921Z,88.10
2019-01-06T22:16:39.309Z,87.90
2019-01-06T22:19:09.402Z,87.50
2019-01-06T22:21:55.584Z,87.50
2019-01-06T22:24:42.195Z,87.50
2019-01-06T22:27:12.304Z,87.80
2019-01-06T22:29:42.346Z,87.60
2019-01-06T22:32:27.667Z,87.70
2019-01-06T22:35:14.350Z,87.80
2019-01-06T22:37:44.409Z,87.80
2019-01-06T22:40:14.490Z,87.70
2019-01-06T22:42:47.345Z,88.10
2019-01-06T22:45:29.117Z,88.20
2019-01-06T22:48:15.334Z,88.00
2019-01-06T22:51:03.376Z,88.30
2019-01-06T22:53:45.750Z,88.40
2019-01-06T22:56:18.509Z,88.60
2019-01-06T22:58:54.534Z,88.50
2019-01-06T23:01:30.600Z,88.70
2019-01-06T23:04:03.453Z,88.70
2019-01-06T23:06:42.486Z,88.90
2019-01-06T23:09:21.602Z,89.00
2019-01-06T23:11:54.462Z,89.10
2019-01-06T23:14:24.553Z,89.20
2019-01-06T23:16:54.669Z,89.60
2019-01-06T23:19:30.801Z,89.90
2019-01-06T23:22:03.578Z,90.00
2019-01-06T23:24:33.673Z,89.80
2019-01-06T23:27:20.198Z,89.60
2019-01-06T23:29:50.285Z,89.80
2019-01-06T23:32:20.361Z,89.80
2019-01-06T23:34:56.160Z,89.60
2019-01-06T23:37:26.241Z,90.20
2019-01-06T23:40:08.418Z,89.70
2019-01-06T23:42:50.412Z,89.70
2019-01-06T23:45:23.231Z,89.90
2019-01-06T23:47:53.310Z,89.80
2019-01-06T23:50:32.254Z,89.90
2019-01-06T23:53:08.085Z,89.90
2019-01-06T23:55:38.163Z,90.00
2019-01-06T23:58:17.578Z,89.90
